Port Vila, Vanuatu

10:19 AM VUT on October 23, 2014 (GMT +1100)
Bauerfield | Change Station
CLOSE
Current Station
Airport
Location: Port Vila,
Elevation: 69 ft
Nearby Weather Stations

Elev 69 ft 17.70 °S, 168.30 °E | Updated 19 minutes ago

Mostly Cloudy
Mostly Cloudy
81 °F
Feels Like 85 °F
N
8
Wind Variable Wind from ENE

Today
High -- | Low -- °F
--% Chance of Precip.
Yesterday
High -- | Low -- °F
Precip. -- in
5:13 AM 5:49 PM
Waning Crescent, 1% visible
Pressure 29.92 in
Visibility 6.2 miles
Clouds Few 2000 ft
Mostly Cloudy 12000 ft
Heat Index 85 °F
Dew Point 72 °F
Humidity 74%
Rainfall 0.00 in
Snow Depth Not available.
UV 6 out of 12
Pollen Not available.
Air Quality Not available.
Flu Activity Not available.
METAR NVVV 222300Z 07007KT 9999 FEW020 BKN120 27/22 Q1013 RMK NIL

More Conditions Fewer Conditions

Pressure 29.92 in
Visibility 6.2 miles
Clouds Few 2000 ft
Mostly Cloudy 12000 ft
Heat Index 85 °F
Dew Point 72 °F
Humidity 74%
Rainfall 0.00 in
Snow Depth Not available.
UV 6 out of 12
Pollen Not available.
Air Quality Not available.
Flu Activity Not available.
METAR NVVV 222300Z 07007KT 9999 FEW020 BKN120 27/22 Q1013 RMK NIL

More Conditions Fewer Conditions

10-Day Weather Forecast

Almanac

Astronomy

Oct. 23, 2014 Rise Set
Actual Time 5:13 AM VUT 5:49 PM VUT
Civil Twilight 4:50 AM VUT 6:11 PM VUT
Nautical Twilight 4:24 AM VUT 6:37 PM VUT
Astronomical Twilight 3:58 AM VUT 7:04 PM VUT
Moon 4:31 AM VUT (10/23) 5:13 PM VUT (10/23)
Length of Visible Light 13h 20m
Length of Day
12h 36m
Tomorrow will be 0m 56s longer.
Waning Crescent, 1% of the Moon is Illuminated
Oct 22
Waning Crescent
Oct 23
New
Oct 30
First Quarter
Nov 6
Full
Nov 14
Last Quarter

Yesterday's Extremes

Country Highs Country Lows

Community

WunderPhotos

Upload Photos

1,764,075 photos uploaded!

WunderBlogs® & News

Nearby

Snow Depth

Not available.

Earthquake Activity

City Distance Mag. Time & Date
No recent earthquake activity has been reported nearby.
Minimum magnitude displayed is 2.5.

Coastal Water Temperatures

Place Temperature
No Stations Reporting

Nearby Weather Stations